createdAt,value
2019-02-27T00:00:21.963Z,99.90
2019-02-27T00:02:53.812Z,99.90
2019-02-27T00:05:24.729Z,99.90
2019-02-27T00:07:55.040Z,99.90
2019-02-27T00:10:25.321Z,99.90
2019-02-27T00:12:55.502Z,99.90
2019-02-27T00:15:26.047Z,99.90
2019-02-27T00:17:56.248Z,99.90
2019-02-27T00:20:26.458Z,99.90
2019-02-27T00:22:56.654Z,99.90
2019-02-27T00:25:27.151Z,99.90
2019-02-27T00:27:57.678Z,99.90
2019-02-27T00:30:28.210Z,99.90
2019-02-27T00:32:58.747Z,99.90
2019-02-27T00:35:29.052Z,99.90
2019-02-27T00:37:59.504Z,99.90
2019-02-27T00:40:30.043Z,99.90
2019-02-27T00:43:00.570Z,99.90
2019-02-27T00:45:30.795Z,99.90
2019-02-27T00:48:00.982Z,99.90
2019-02-27T00:50:31.467Z,99.90
2019-02-27T00:53:01.966Z,99.90
2019-02-27T00:55:32.147Z,99.90
2019-02-27T00:58:02.335Z,99.90
2019-02-27T01:00:32.549Z,99.90
2019-02-27T01:03:02.742Z,99.90
2019-02-27T01:05:33.427Z,99.90
2019-02-27T01:08:03.697Z,99.90
2019-02-27T01:10:33.994Z,99.90
2019-02-27T01:13:04.354Z,99.90
2019-02-27T01:15:34.570Z,99.90
2019-02-27T01:18:04.845Z,99.90
2019-02-27T01:20:35.109Z,99.90
2019-02-27T01:23:05.322Z,99.90
2019-02-27T01:25:35.826Z,99.90
2019-02-27T01:28:06.055Z,99.90
2019-02-27T01:30:36.330Z,99.90
2019-02-27T01:33:06.519Z,99.90
2019-02-27T01:35:36.743Z,99.90
2019-02-27T01:38:06.937Z,99.90
2019-02-27T01:40:37.163Z,99.90
2019-02-27T01:43:07.370Z,99.90
2019-02-27T01:45:37.606Z,99.90
2019-02-27T01:48:09.175Z,99.90
2019-02-27T01:50:40.106Z,99.90
2019-02-27T01:53:10.666Z,99.90
2019-02-27T01:55:41.052Z,99.90
2019-02-27T01:58:11.221Z,99.90
2019-02-27T02:00:41.744Z,99.90
2019-02-27T02:03:13.696Z,99.90
2019-02-27T02:05:44.165Z,99.90
2019-02-27T02:08:14.701Z,99.90
2019-02-27T02:10:44.943Z,99.90
2019-02-27T02:13:18.579Z,99.90
2019-02-27T02:16:16.037Z,99.90
2019-02-27T02:18:57.594Z,99.90
2019-02-27T02:21:36.903Z,99.90
2019-02-27T02:24:10.166Z,99.90
2019-02-27T02:26:55.279Z,99.90
2019-02-27T02:29:52.924Z,99.90
2019-02-27T02:32:23.991Z,99.90
2019-02-27T02:34:57.243Z,99.90
2019-02-27T02:37:37.768Z,99.90
2019-02-27T02:40:31.114Z,99.90
2019-02-27T02:43:07.940Z,99.90
2019-02-27T02:45:53.131Z,99.90
2019-02-27T02:48:31.017Z,99.90
2019-02-27T02:51:34.856Z,99.90
2019-02-27T02:54:17.068Z,99.90
2019-02-27T02:57:14.398Z,99.90
2019-02-27T03:00:07.347Z,99.90
2019-02-27T03:03:01.938Z,99.90
2019-02-27T03:05:38.492Z,99.90
2019-02-27T03:08:11.780Z,99.90
2019-02-27T03:10:47.861Z,99.90
2019-02-27T03:13:27.056Z,99.90
2019-02-27T03:16:12.307Z,99.90
2019-02-27T03:18:54.156Z,99.90
2019-02-27T03:21:30.131Z,99.90
2019-02-27T03:24:28.924Z,99.90
2019-02-27T03:27:11.192Z,99.90
2019-02-27T03:29:56.647Z,99.90
2019-02-27T03:32:41.231Z,99.90
2019-02-27T03:35:16.448Z,99.90
2019-02-27T03:37:58.892Z,99.90
2019-02-27T03:40:45.003Z,99.90
2019-02-27T03:43:25.186Z,99.90
2019-02-27T03:46:03.083Z,99.90
2019-02-27T03:49:05.163Z,99.90
2019-02-27T03:51:47.403Z,99.90
2019-02-27T03:54:35.859Z,99.90
2019-02-27T03:57:09.398Z,99.90
2019-02-27T03:59:59.200Z,99.90
2019-02-27T04:02:51.972Z,99.90
2019-02-27T04:05:31.262Z,99.90
2019-02-27T04:08:43.337Z,99.90
2019-02-27T04:11:08.701Z,99.90
2019-02-27T04:13:39.250Z,99.90
2019-02-27T04:16:09.742Z,99.90
2019-02-27T04:18:38.854Z,99.90
2019-02-27T04:21:09.486Z,99.90
2019-02-27T04:23:39.716Z,99.90
2019-02-27T04:26:09.923Z,99.90
2019-02-27T04:28:40.163Z,99.90
2019-02-27T04:31:10.339Z,99.90
2019-02-27T04:33:40.566Z,99.90
2019-02-27T04:36:12.710Z,99.90
2019-02-27T04:38:42.925Z,99.90
2019-02-27T04:41:13.110Z,99.90
2019-02-27T04:43:43.582Z,99.90
2019-02-27T04:46:14.123Z,99.90
2019-02-27T04:48:44.340Z,99.90
2019-02-27T04:51:17.188Z,99.90
2019-02-27T04:53:46.778Z,99.90
2019-02-27T04:56:16.979Z,99.90
2019-02-27T04:58:47.229Z,99.90
2019-02-27T05:01:17.723Z,99.90
2019-02-27T05:03:48.243Z,99.90
2019-02-27T05:06:18.771Z,99.90
2019-02-27T05:08:49.317Z,99.90
2019-02-27T05:11:19.537Z,99.90
2019-02-27T05:13:54.097Z,99.90
2019-02-27T05:16:22.233Z,99.90
2019-02-27T05:18:52.466Z,99.90
2019-02-27T05:21:22.646Z,99.90
2019-02-27T05:23:52.880Z,99.90
2019-02-27T05:26:27.087Z,99.90
2019-02-27T05:28:54.978Z,99.90
2019-02-27T05:31:25.204Z,99.90
2019-02-27T05:33:55.394Z,99.90
2019-02-27T05:36:25.610Z,99.90
2019-02-27T05:38:55.805Z,99.90
2019-02-27T05:41:26.327Z,99.90
2019-02-27T05:43:56.859Z,99.90
2019-02-27T05:46:27.078Z,99.90
2019-02-27T05:48:57.284Z,99.90
2019-02-27T05:51:27.503Z,99.90
2019-02-27T05:53:58.499Z,99.90
2019-02-27T05:56:29.354Z,99.90
2019-02-27T05:58:59.855Z,99.90
2019-02-27T06:01:30.073Z,99.90
2019-02-27T06:04:00.612Z,99.90
2019-02-27T06:06:30.870Z,99.90
2019-02-27T06:09:01.057Z,99.90
2019-02-27T06:11:33.114Z,99.90
2019-02-27T06:14:03.457Z,99.90
2019-02-27T06:16:37.098Z,99.90
2019-02-27T06:19:05.574Z,99.90
2019-02-27T06:21:35.792Z,99.90
2019-02-27T06:24:06.031Z,99.90
2019-02-27T06:26:36.222Z,99.90
2019-02-27T06:29:06.745Z,99.90
2019-02-27T06:31:39.425Z,99.90
2019-02-27T06:34:09.564Z,99.90
2019-02-27T06:36:42.770Z,99.90
2019-02-27T06:39:12.256Z,99.90
2019-02-27T06:41:47.446Z,99.90
2019-02-27T06:44:19.025Z,99.90
2019-02-27T06:46:51.107Z,99.90
2019-02-27T06:49:21.373Z,99.90
2019-02-27T06:51:51.877Z,99.90
2019-02-27T06:54:22.405Z,99.90
2019-02-27T06:56:52.615Z,99.90
2019-02-27T06:59:25.247Z,99.90
2019-02-27T07:01:55.028Z,99.90
2019-02-27T07:04:26.840Z,99.90
2019-02-27T07:06:57.209Z,99.90
2019-02-27T07:09:27.756Z,99.90
2019-02-27T07:11:57.985Z,99.90
2019-02-27T07:14:28.609Z,99.90
2019-02-27T07:16:59.151Z,99.90
2019-02-27T07:19:29.354Z,99.90
2019-02-27T07:21:59.550Z,99.90
2019-02-27T07:24:30.616Z,99.90
2019-02-27T07:27:01.931Z,99.90
2019-02-27T07:29:32.415Z,99.90
2019-02-27T07:32:02.957Z,99.90
2019-02-27T07:34:33.242Z,99.90
2019-02-27T07:37:06.645Z,99.90
2019-02-27T07:39:36.824Z,99.90
2019-02-27T07:42:07.331Z,99.90
2019-02-27T07:44:37.526Z,99.90
2019-02-27T07:47:07.759Z,99.90
2019-02-27T07:49:38.217Z,99.90
2019-02-27T07:52:08.426Z,99.90
2019-02-27T07:54:38.858Z,99.90
2019-02-27T07:57:09.073Z,99.90
2019-02-27T07:59:39.522Z,99.90
2019-02-27T08:02:09.755Z,99.90
2019-02-27T08:04:40.275Z,99.90
2019-02-27T08:07:12.424Z,99.90
2019-02-27T08:09:42.426Z,99.90
2019-02-27T08:12:12.676Z,99.90
2019-02-27T08:14:43.140Z,99.90
2019-02-27T08:17:17.563Z,99.90
2019-02-27T08:19:46.099Z,99.90
2019-02-27T08:22:16.451Z,99.90
2019-02-27T08:24:46.661Z,99.90
2019-02-27T08:27:17.210Z,99.90
2019-02-27T08:29:47.746Z,99.90
2019-02-27T08:32:17.930Z,99.90
2019-02-27T08:34:48.159Z,99.90
2019-02-27T08:37:20.286Z,99.90
2019-02-27T08:39:50.678Z,99.90
2019-02-27T08:42:21.132Z,99.90
2019-02-27T08:44:51.341Z,99.90
2019-02-27T08:47:21.547Z,99.90
2019-02-27T08:49:51.761Z,99.90
2019-02-27T08:52:22.234Z,99.90
2019-02-27T08:54:52.458Z,99.90
2019-02-27T08:57:22.990Z,99.90
2019-02-27T08:59:53.527Z,99.90
2019-02-27T09:02:24.244Z,99.90
2019-02-27T09:04:54.535Z,99.90
2019-02-27T09:07:24.741Z,99.90
2019-02-27T09:09:55.264Z,99.90
2019-02-27T09:12:25.870Z,99.90
2019-02-27T09:14:56.411Z,99.90
2019-02-27T09:17:27.367Z,99.90
2019-02-27T09:19:58.216Z,99.90
2019-02-27T09:22:28.411Z,99.90
2019-02-27T09:24:59.205Z,99.90
2019-02-27T09:27:32.924Z,99.90
2019-02-27T09:30:02.802Z,99.90
2019-02-27T09:32:33.779Z,99.90
2019-02-27T09:35:05.112Z,99.90
2019-02-27T09:37:35.885Z,99.90
2019-02-27T09:40:15.316Z,99.90
2019-02-27T09:42:46.086Z,99.90
2019-02-27T09:45:22.929Z,99.90
2019-02-27T09:47:54.207Z,99.90
2019-02-27T09:50:47.836Z,99.90
2019-02-27T09:53:15.327Z,99.90
2019-02-27T09:55:46.136Z,99.90
2019-02-27T09:58:16.919Z,99.90
2019-02-27T10:00:53.576Z,99.90
2019-02-27T10:03:24.355Z,99.50
2019-02-27T10:05:55.192Z,98.20
2019-02-27T10:08:26.295Z,97.60
2019-02-27T10:10:57.441Z,97.30
2019-02-27T10:13:28.219Z,97.40
2019-02-27T10:16:01.390Z,96.80
2019-02-27T10:18:31.825Z,96.40
2019-02-27T10:21:02.959Z,95.40
2019-02-27T10:23:33.742Z,94.30
2019-02-27T10:26:04.922Z,94.40
2019-02-27T10:28:39.741Z,94.40
2019-02-27T10:31:08.864Z,93.90
2019-02-27T10:33:39.661Z,92.80
2019-02-27T10:36:10.842Z,92.20
2019-02-27T10:38:42.007Z,91.10
2019-02-27T10:41:13.046Z,91.30
2019-02-27T10:43:44.179Z,90.20
2019-02-27T10:46:15.243Z,85.20
2019-02-27T10:48:47.005Z,81.80
2019-02-27T10:51:18.458Z,81.30
2019-02-27T10:53:50.384Z,83.50
2019-02-27T10:56:21.611Z,76.90
2019-02-27T10:58:53.747Z,74.10
2019-02-27T11:01:24.522Z,74.70
2019-02-27T11:03:55.349Z,76.80
2019-02-27T11:06:33.775Z,76.20
2019-02-27T11:08:58.915Z,75.80
2019-02-27T11:11:29.762Z,73.00
2019-02-27T11:14:00.907Z,72.10
2019-02-27T11:16:31.944Z,70.00
2019-02-27T11:19:02.725Z,70.50
2019-02-27T11:21:33.827Z,69.90
2019-02-27T11:24:04.877Z,65.60
2019-02-27T11:26:35.650Z,67.20
2019-02-27T11:29:06.556Z,63.30
2019-02-27T11:31:37.595Z,60.90
2019-02-27T11:34:10.530Z,61.00
2019-02-27T11:36:41.349Z,60.60
2019-02-27T11:39:12.609Z,60.30
2019-02-27T11:41:46.085Z,60.50
2019-02-27T11:44:15.912Z,58.10
2019-02-27T11:46:58.212Z,57.00
2019-02-27T11:49:19.522Z,56.80
2019-02-27T11:51:53.097Z,55.00
2019-02-27T11:54:23.067Z,53.90
2019-02-27T11:56:56.090Z,53.50
2019-02-27T11:59:26.353Z,52.40
2019-02-27T12:01:57.147Z,53.60
2019-02-27T12:04:28.222Z,52.80
2019-02-27T12:06:59.014Z,52.90
2019-02-27T12:09:29.797Z,52.40
2019-02-27T12:12:00.611Z,51.70
2019-02-27T12:14:31.678Z,51.60
2019-02-27T12:17:02.850Z,50.90
2019-02-27T12:19:33.626Z,51.30
2019-02-27T12:22:04.498Z,52.20
2019-02-27T12:24:35.267Z,52.40
2019-02-27T12:27:07.272Z,51.00
2019-02-27T12:29:38.460Z,53.30
2019-02-27T12:32:09.611Z,52.00
2019-02-27T12:34:40.649Z,51.10
2019-02-27T12:37:19.231Z,51.10
2019-02-27T12:39:44.281Z,49.70
2019-02-27T12:42:15.048Z,49.60
2019-02-27T12:44:45.828Z,49.50
2019-02-27T12:47:16.891Z,49.30
2019-02-27T12:49:47.667Z,48.50
2019-02-27T12:52:18.461Z,47.80
2019-02-27T12:54:49.235Z,48.00
2019-02-27T12:57:19.996Z,48.30
2019-02-27T12:59:51.085Z,47.00
2019-02-27T13:02:24.428Z,47.80
2019-02-27T13:04:54.345Z,48.20
2019-02-27T13:07:25.442Z,47.80
2019-02-27T13:09:58.485Z,49.60
2019-02-27T13:12:29.076Z,48.20
2019-02-27T13:14:59.843Z,47.60
2019-02-27T13:17:30.945Z,48.20
2019-02-27T13:20:03.081Z,47.90
2019-02-27T13:22:34.150Z,47.20
2019-02-27T13:25:06.409Z,48.20
2019-02-27T13:27:37.225Z,47.20
2019-02-27T13:30:14.094Z,48.20
2019-02-27T13:32:45.189Z,48.20
2019-02-27T13:35:16.463Z,48.00
2019-02-27T13:37:47.590Z,48.00
2019-02-27T13:40:24.466Z,48.60
2019-02-27T13:42:55.334Z,47.80
2019-02-27T13:45:28.510Z,48.30
2019-02-27T13:48:04.918Z,47.10
2019-02-27T13:50:32.118Z,47.20
2019-02-27T13:53:02.917Z,46.40
2019-02-27T13:55:33.727Z,46.20
2019-02-27T13:58:04.529Z,46.30
2019-02-27T14:00:37.261Z,46.20
2019-02-27T14:03:12.171Z,47.50
2019-02-27T14:05:40.960Z,45.60
2019-02-27T14:08:12.207Z,45.70
2019-02-27T14:10:43.054Z,47.80
2019-02-27T14:13:13.860Z,45.10
2019-02-27T14:15:44.619Z,44.90
2019-02-27T14:18:16.176Z,45.90
2019-02-27T14:20:47.587Z,46.70
2019-02-27T14:23:18.346Z,46.60
2019-02-27T14:25:49.393Z,47.10
2019-02-27T14:28:21.034Z,45.60
2019-02-27T14:30:53.530Z,45.10
2019-02-27T14:33:24.286Z,44.00
2019-02-27T14:35:55.148Z,43.90
2019-02-27T14:38:25.910Z,44.20
2019-02-27T14:40:57.003Z,45.40
2019-02-27T14:43:27.971Z,46.20
2019-02-27T14:45:58.887Z,45.80
2019-02-27T14:48:29.654Z,45.20
2019-02-27T14:51:00.449Z,45.40
2019-02-27T14:53:31.223Z,44.80
2019-02-27T14:56:02.026Z,46.70
2019-02-27T14:58:33.070Z,46.30
2019-02-27T15:01:05.105Z,46.30
2019-02-27T15:03:36.186Z,45.70
2019-02-27T15:06:07.321Z,45.60
2019-02-27T15:08:38.091Z,45.60
2019-02-27T15:11:08.904Z,46.40
2019-02-27T15:13:39.666Z,45.90
2019-02-27T15:16:10.787Z,45.20
2019-02-27T15:18:41.841Z,45.20
2019-02-27T15:21:13.231Z,45.50
2019-02-27T15:23:44.948Z,47.20
2019-02-27T15:26:16.459Z,46.00
2019-02-27T15:28:48.157Z,46.00
2019-02-27T15:31:21.456Z,45.20
2019-02-27T15:33:51.401Z,45.40
2019-02-27T15:36:22.218Z,45.50
2019-02-27T15:38:53.015Z,45.20
2019-02-27T15:41:24.027Z,45.20
2019-02-27T15:44:00.234Z,45.40
2019-02-27T15:46:27.290Z,45.40
2019-02-27T15:48:58.058Z,46.00
2019-02-27T15:51:32.455Z,46.60
2019-02-27T15:54:01.459Z,45.60
2019-02-27T15:56:32.321Z,45.20
2019-02-27T15:59:07.335Z,45.80
2019-02-27T16:01:36.127Z,45.90
2019-02-27T16:04:07.157Z,46.30
2019-02-27T16:06:39.732Z,47.30
2019-02-27T16:09:10.995Z,48.30
2019-02-27T16:11:41.790Z,48.90
2019-02-27T16:14:12.563Z,49.70
2019-02-27T16:16:43.610Z,50.30
2019-02-27T16:19:14.432Z,50.60
2019-02-27T16:21:45.498Z,51.10
2019-02-27T16:24:16.539Z,51.70
2019-02-27T16:26:47.297Z,52.20
2019-02-27T16:29:19.940Z,52.60
2019-02-27T16:31:50.607Z,53.40
2019-02-27T16:34:21.390Z,54.10
2019-02-27T16:36:52.162Z,55.40
2019-02-27T16:39:22.960Z,55.30
2019-02-27T16:41:54.071Z,55.90
2019-02-27T16:44:24.868Z,56.50
2019-02-27T16:46:55.635Z,57.10
2019-02-27T16:49:26.450Z,57.40
2019-02-27T16:51:57.222Z,57.90
2019-02-27T16:54:28.024Z,58.20
2019-02-27T16:56:58.795Z,59.00
2019-02-27T16:59:29.822Z,59.70
2019-02-27T17:02:03.727Z,60.00
2019-02-27T17:04:34.258Z,60.80
2019-02-27T17:07:05.731Z,61.20
2019-02-27T17:09:36.868Z,61.70
2019-02-27T17:12:07.980Z,61.90
2019-02-27T17:14:39.424Z,62.50
2019-02-27T17:17:10.714Z,63.50
2019-02-27T17:19:41.515Z,65.10
2019-02-27T17:22:12.270Z,67.70
2019-02-27T17:24:43.054Z,68.80
2019-02-27T17:27:16.370Z,70.20
2019-02-27T17:29:46.650Z,72.60
2019-02-27T17:32:17.687Z,74.70
2019-02-27T17:34:48.785Z,77.60
2019-02-27T17:37:19.885Z,77.90
2019-02-27T17:39:50.682Z,78.20
2019-02-27T17:42:21.446Z,78.70
2019-02-27T17:44:52.283Z,81.60
2019-02-27T17:47:23.064Z,83.60
2019-02-27T17:49:53.822Z,86.00
2019-02-27T17:52:24.594Z,87.50
2019-02-27T17:54:55.650Z,88.10
2019-02-27T17:57:26.413Z,88.20
2019-02-27T17:59:57.198Z,88.20
2019-02-27T18:02:30.128Z,88.40
2019-02-27T18:05:00.438Z,87.10
2019-02-27T18:07:34.392Z,88.90
2019-02-27T18:10:06.536Z,90.20
2019-02-27T18:12:37.294Z,90.70
2019-02-27T18:15:14.237Z,90.90
2019-02-27T18:17:45.390Z,90.90
2019-02-27T18:20:16.527Z,90.90
2019-02-27T18:22:49.377Z,91.50
2019-02-27T18:25:20.424Z,91.80
2019-02-27T18:27:51.498Z,91.60
2019-02-27T18:30:23.860Z,91.60
2019-02-27T18:32:54.617Z,91.60
2019-02-27T18:35:28.765Z,91.60
2019-02-27T18:37:57.860Z,91.70
2019-02-27T18:40:28.726Z,91.90
2019-02-27T18:42:59.505Z,91.70
2019-02-27T18:45:30.385Z,92.00
2019-02-27T18:48:01.146Z,92.40
2019-02-27T18:50:31.946Z,92.60
2019-02-27T18:53:03.389Z,93.10
2019-02-27T18:55:34.525Z,93.00
2019-02-27T18:58:05.684Z,93.60
2019-02-27T19:00:36.925Z,93.80
2019-02-27T19:03:25.901Z,93.70
2019-02-27T19:05:57.333Z,93.70
2019-02-27T19:08:28.706Z,93.80
2019-02-27T19:10:59.735Z,93.90
2019-02-27T19:13:31.785Z,94.30
2019-02-27T19:16:03.147Z,94.60
2019-02-27T19:18:35.120Z,95.10
2019-02-27T19:21:06.303Z,95.40
2019-02-27T19:23:37.104Z,95.10
2019-02-27T19:26:09.364Z,94.80
2019-02-27T19:28:40.974Z,94.90
2019-02-27T19:31:16.381Z,95.20
2019-02-27T19:33:44.696Z,95.60
2019-02-27T19:36:19.258Z,95.90
2019-02-27T19:38:48.402Z,96.20
2019-02-27T19:41:19.619Z,96.50
2019-02-27T19:43:54.814Z,96.60
2019-02-27T19:46:23.226Z,96.60
2019-02-27T19:48:54.023Z,97.00
2019-02-27T19:51:24.773Z,97.00
2019-02-27T19:53:55.633Z,97.20
2019-02-27T19:56:26.415Z,97.20
2019-02-27T19:58:57.184Z,97.80
2019-02-27T20:01:27.987Z,97.90
2019-02-27T20:03:58.891Z,98.10
2019-02-27T20:06:29.981Z,98.40
2019-02-27T20:09:00.853Z,98.50
2019-02-27T20:11:31.842Z,98.60
2019-02-27T20:14:03.233Z,98.90
2019-02-27T20:16:34.531Z,98.70
2019-02-27T20:19:05.358Z,98.90
2019-02-27T20:21:36.223Z,98.80
2019-02-27T20:24:14.270Z,99.20
2019-02-27T20:26:44.509Z,99.50
2019-02-27T20:29:12.206Z,99.70
2019-02-27T20:31:43.173Z,99.90
2019-02-27T20:34:13.969Z,99.90
2019-02-27T20:36:44.813Z,99.90
2019-02-27T20:39:15.896Z,99.90
2019-02-27T20:41:47.022Z,99.90
2019-02-27T20:44:17.811Z,99.90
2019-02-27T20:46:49.463Z,99.90
2019-02-27T20:49:21.371Z,99.90
2019-02-27T20:51:52.130Z,99.90
2019-02-27T20:54:22.970Z,99.90
2019-02-27T20:56:55.754Z,99.90
2019-02-27T20:59:26.508Z,99.90
2019-02-27T21:01:57.362Z,99.90
2019-02-27T21:04:28.162Z,99.90
2019-02-27T21:06:58.922Z,99.90
2019-02-27T21:09:29.710Z,99.90
2019-02-27T21:12:03.278Z,99.90
2019-02-27T21:14:33.258Z,99.90
2019-02-27T21:17:04.489Z,99.90
2019-02-27T21:19:37.214Z,99.90
2019-02-27T21:22:08.066Z,99.90
2019-02-27T21:24:40.567Z,99.90
2019-02-27T21:27:11.619Z,99.90
2019-02-27T21:29:43.378Z,99.90
2019-02-27T21:32:15.239Z,99.90
2019-02-27T21:34:46.041Z,99.90
2019-02-27T21:37:17.173Z,99.90
2019-02-27T21:39:47.963Z,99.90
2019-02-27T21:42:19.505Z,99.90
2019-02-27T21:44:50.489Z,99.90
2019-02-27T21:47:21.240Z,99.90
2019-02-27T21:49:52.373Z,99.90
2019-02-27T21:52:23.513Z,99.90
2019-02-27T21:54:54.353Z,99.90
2019-02-27T21:57:25.615Z,99.90
2019-02-27T21:59:57.082Z,99.90
2019-02-27T22:02:30.071Z,99.90
2019-02-27T22:05:01.000Z,99.90
2019-02-27T22:07:33.258Z,99.90
2019-02-27T22:10:07.678Z,99.90
2019-02-27T22:12:38.470Z,99.90
2019-02-27T22:15:22.961Z,99.90
2019-02-27T22:17:54.009Z,99.90
2019-02-27T22:20:26.049Z,99.90
2019-02-27T22:22:57.745Z,99.90
2019-02-27T22:25:31.134Z,99.90
2019-02-27T22:28:00.982Z,99.90
2019-02-27T22:30:32.515Z,99.90
2019-02-27T22:33:03.846Z,99.90
2019-02-27T22:35:37.952Z,99.90
2019-02-27T22:38:07.700Z,99.90
2019-02-27T22:40:39.185Z,99.90
2019-02-27T22:43:10.134Z,99.90
2019-02-27T22:45:44.000Z,99.90
2019-02-27T22:48:13.699Z,99.90
2019-02-27T22:50:44.465Z,99.90
2019-02-27T22:53:15.579Z,99.90
2019-02-27T22:55:46.619Z,99.90
2019-02-27T22:58:19.565Z,99.90
2019-02-27T23:00:57.843Z,99.90
2019-02-27T23:03:36.922Z,99.90
2019-02-27T23:06:12.339Z,99.90
2019-02-27T23:08:41.706Z,99.90
2019-02-27T23:11:12.246Z,99.90
2019-02-27T23:13:48.258Z,99.90
2019-02-27T23:16:20.306Z,99.90
2019-02-27T23:18:50.519Z,99.90
2019-02-27T23:21:20.734Z,99.90
2019-02-27T23:23:51.342Z,99.90
2019-02-27T23:26:21.582Z,99.90
2019-02-27T23:28:51.792Z,99.90
2019-02-27T23:31:23.466Z,99.90
2019-02-27T23:33:53.901Z,99.90
2019-02-27T23:36:24.179Z,99.90
2019-02-27T23:38:54.624Z,99.90
2019-02-27T23:41:25.167Z,99.90
2019-02-27T23:43:55.422Z,99.90
2019-02-27T23:46:25.647Z,99.90
2019-02-27T23:48:56.153Z,99.90
2019-02-27T23:51:26.675Z,99.90
2019-02-27T23:53:58.612Z,99.90
2019-02-27T23:56:28.801Z,99.90
2019-02-27T23:59:02.304Z,99.90
